createdAt,value
2022-09-05T00:02:26.550Z,3.70
2022-09-05T00:05:03.890Z,3.47
2022-09-05T00:07:59.525Z,3.97
2022-09-05T00:10:36.171Z,3.40
2022-09-05T00:13:08.193Z,3.90
2022-09-05T00:15:43.615Z,3.60
2022-09-05T00:22:52.633Z,3.33
2022-09-05T00:24:29.055Z,3.83
2022-09-05T00:24:45.655Z,2.87
2022-09-05T00:27:17.085Z,3.43
2022-09-05T00:31:06.765Z,3.40
2022-09-05T00:33:16.753Z,3.07
2022-09-05T00:36:03.725Z,3.90
2022-09-05T00:38:37.330Z,3.50
2022-09-05T00:41:08.715Z,2.60
2022-09-05T00:43:39.183Z,3.60
2022-09-05T00:46:10.525Z,3.57
2022-09-05T00:48:46.039Z,3.47
2022-09-05T00:51:28.527Z,4.70
2022-09-05T00:54:15.791Z,3.53
2022-09-05T00:56:58.298Z,3.10
2022-09-05T00:59:50.913Z,3.73
2022-09-05T01:02:49.845Z,3.40
2022-09-05T01:05:32.897Z,3.43
2022-09-05T01:08:18.274Z,3.57
2022-09-05T01:10:54.557Z,3.50
2022-09-05T01:13:30.918Z,3.37
2022-09-05T01:16:08.239Z,2.77
2022-09-05T01:18:44.810Z,3.00
2022-09-05T01:21:48.326Z,3.13
2022-09-05T01:24:40.575Z,3.43
2022-09-05T01:29:13.142Z,4.03
2022-09-05T01:30:41.085Z,4.50
2022-09-05T01:33:19.467Z,2.93
2022-09-05T01:36:09.676Z,4.00
2022-09-05T01:38:48.304Z,4.00
2022-09-05T01:41:39.467Z,3.53
2022-09-05T01:44:13.816Z,2.63
2022-09-05T01:46:56.737Z,3.60
2022-09-05T01:49:37.780Z,3.37
2022-09-05T01:52:21.533Z,3.40
2022-09-05T01:55:03.731Z,2.67
2022-09-05T01:57:39.413Z,2.70
2022-09-05T02:00:10.888Z,3.13
2022-09-05T02:02:50.398Z,3.60
2022-09-05T02:05:55.544Z,3.50
2022-09-05T02:08:41.907Z,3.37
2022-09-05T02:11:11.863Z,3.10
2022-09-05T02:13:50.420Z,2.93
2022-09-05T02:16:24.265Z,3.43
2022-09-05T02:18:57.372Z,3.00
2022-09-05T02:21:33.395Z,3.43
2022-09-05T02:24:27.084Z,3.73
2022-09-05T02:28:02.169Z,3.67
2022-09-05T02:30:10.086Z,3.33
2022-09-05T02:32:45.721Z,3.27
2022-09-05T02:35:22.118Z,3.53
2022-09-05T02:39:05.443Z,3.60
2022-09-05T02:45:14.919Z,3.17
2022-09-05T02:45:18.726Z,2.90
2022-09-05T02:46:32.342Z,3.80
2022-09-05T02:49:04.905Z,3.07
2022-09-05T02:57:25.073Z,3.07
2022-09-05T02:57:36.178Z,3.10
2022-09-05T02:58:07.047Z,2.90
2022-09-05T03:00:39.959Z,3.30
2022-09-05T03:03:21.137Z,3.40
2022-09-05T03:05:57.056Z,4.23
2022-09-05T03:08:49.269Z,3.00
2022-09-05T03:11:45.682Z,2.80
2022-09-05T03:14:54.162Z,3.20
2022-09-05T03:18:21.133Z,3.87
2022-09-05T03:21:34.571Z,3.50
2022-09-05T03:24:39.138Z,2.77
2022-09-05T03:27:31.261Z,3.13
2022-09-05T03:30:12.580Z,3.40
2022-09-05T03:33:22.679Z,3.40
2022-09-05T03:36:39.774Z,3.63
2022-09-05T03:39:35.339Z,3.53
2022-09-05T03:42:19.640Z,3.53
2022-09-05T03:45:05.219Z,3.10
2022-09-05T03:47:50.643Z,2.60
2022-09-05T03:53:09.221Z,3.00
2022-09-05T03:57:15.840Z,2.70
2022-09-05T03:57:33.781Z,3.00
2022-09-05T04:00:10.802Z,3.00
2022-09-05T04:07:32.481Z,2.50
2022-09-05T04:08:24.609Z,3.03
2022-09-05T04:08:41.803Z,3.17
2022-09-05T04:11:13.746Z,3.50
2022-09-05T04:13:48.177Z,3.07
2022-09-05T04:16:20.099Z,4.00
2022-09-05T04:18:53.790Z,3.70
2022-09-05T04:21:24.891Z,3.30
2022-09-05T04:24:01.223Z,2.90
2022-09-05T04:26:56.134Z,3.17
2022-09-05T04:29:29.675Z,2.87
2022-09-05T04:32:15.445Z,3.40
2022-09-05T04:35:05.733Z,3.60
2022-09-05T04:37:55.174Z,3.80
2022-09-05T04:40:45.515Z,4.00
2022-09-05T04:43:29.562Z,3.40
2022-09-05T04:46:15.734Z,3.77
2022-09-05T04:48:55.481Z,3.23
2022-09-05T04:51:40.243Z,3.03
2022-09-05T04:54:34.086Z,3.97
2022-09-05T04:57:11.769Z,3.13
2022-09-05T05:02:40.490Z,4.03
2022-09-05T05:06:03.644Z,3.23
2022-09-05T05:06:18.704Z,4.20
2022-09-05T05:08:38.792Z,3.20
2022-09-05T05:16:23.815Z,3.67
2022-09-05T05:18:03.731Z,3.07
2022-09-05T05:18:07.041Z,3.07
2022-09-05T05:20:40.658Z,2.50
2022-09-05T05:22:37.605Z,3.00
2022-09-05T05:25:12.087Z,2.47
2022-09-05T05:27:45.707Z,2.20
2022-09-05T05:30:24.914Z,2.27
2022-09-05T05:32:54.967Z,2.00
2022-09-05T05:35:28.312Z,1.60
2022-09-05T05:38:04.097Z,2.10
2022-09-05T05:40:41.302Z,2.20
2022-09-05T05:43:22.903Z,1.93
2022-09-05T05:45:57.883Z,1.80
2022-09-05T05:48:31.218Z,1.40
2022-09-05T05:51:13.695Z,1.60
2022-09-05T05:53:52.389Z,1.90
2022-09-05T05:56:40.758Z,1.90
2022-09-05T05:59:15.387Z,1.60
2022-09-05T06:02:19.602Z,2.13
2022-09-05T06:05:22.856Z,2.03
2022-09-05T06:08:58.887Z,2.20
2022-09-05T06:14:37.510Z,2.47
2022-09-05T06:15:10.609Z,2.27
2022-09-05T06:18:24.915Z,2.50
2022-09-05T06:22:06.469Z,2.33
2022-09-05T06:24:45.885Z,2.40
2022-09-05T06:27:28.744Z,2.90
2022-09-05T06:30:00.599Z,2.43
2022-09-05T06:32:39.044Z,2.80
2022-09-05T06:35:28.546Z,2.53
2022-09-05T06:38:10.872Z,2.57
2022-09-05T06:40:45.678Z,2.37
2022-09-05T06:43:32.908Z,2.13
2022-09-05T06:46:52.812Z,2.10
2022-09-05T06:49:32.350Z,2.07
2022-09-05T06:52:34.840Z,2.10
2022-09-05T06:55:34.698Z,2.43
2022-09-05T06:58:47.848Z,2.07
2022-09-05T07:01:23.068Z,1.57
2022-09-05T07:04:31.947Z,1.83
2022-09-05T07:07:06.549Z,1.87
2022-09-05T07:09:49.736Z,1.60
2022-09-05T07:12:20.673Z,2.10
2022-09-05T07:15:08.992Z,1.83
2022-09-05T07:18:09.023Z,1.50
2022-09-05T07:21:15.668Z,2.10
2022-09-05T07:24:06.703Z,1.80
2022-09-05T07:26:53.616Z,1.90
2022-09-05T07:29:25.364Z,1.70
2022-09-05T07:31:57.566Z,2.03
2022-09-05T07:34:29.811Z,1.40
2022-09-05T07:37:14.052Z,1.90
2022-09-05T07:39:49.179Z,2.00
2022-09-05T07:42:21.433Z,1.60
2022-09-05T07:44:53.979Z,1.47
2022-09-05T07:47:25.073Z,2.17
2022-09-05T07:52:19.075Z,1.30
2022-09-05T07:56:59.133Z,1.73
2022-09-05T07:57:00.803Z,1.47
2022-09-05T07:58:26.182Z,1.93
2022-09-05T08:00:56.522Z,1.30
2022-09-05T08:03:27.682Z,1.70
2022-09-05T08:05:59.630Z,1.93
2022-09-05T08:08:31.593Z,1.60
2022-09-05T08:11:24.966Z,2.17
2022-09-05T08:14:38.403Z,1.53
2022-09-05T08:16:47.591Z,1.80
2022-09-05T08:19:57.833Z,1.63
2022-09-05T08:22:52.806Z,1.97
2022-09-05T08:25:24.157Z,1.70
2022-09-05T08:28:06.341Z,1.97
2022-09-05T08:30:40.053Z,1.43
2022-09-05T08:33:12.666Z,1.90
2022-09-05T08:35:44.610Z,2.33
2022-09-05T08:38:14.855Z,1.80
2022-09-05T08:40:49.732Z,2.00
2022-09-05T08:46:06.456Z,1.70
2022-09-05T08:46:42.971Z,1.47
2022-09-05T08:49:36.766Z,1.70
2022-09-05T08:52:10.353Z,2.30
2022-09-05T08:54:54.895Z,1.60
2022-09-05T08:57:53.973Z,1.57
2022-09-05T09:00:24.706Z,1.67
2022-09-05T09:03:07.880Z,1.40
2022-09-05T09:06:14.425Z,1.73
2022-09-05T09:09:05.286Z,1.83
2022-09-05T09:11:38.057Z,1.60
2022-09-05T09:14:37.710Z,1.30
2022-09-05T09:17:16.670Z,1.80
2022-09-05T09:19:51.020Z,1.70
2022-09-05T09:22:27.654Z,2.30
2022-09-05T09:25:11.927Z,1.70
2022-09-05T09:28:48.825Z,1.93
2022-09-05T09:31:07.865Z,1.40
2022-09-05T09:33:42.359Z,1.80
2022-09-05T09:36:23.412Z,2.03
2022-09-05T09:39:24.417Z,1.70
2022-09-05T09:42:33.496Z,1.57
2022-09-05T09:45:30.085Z,1.60
2022-09-05T09:48:43.103Z,1.70
2022-09-05T09:51:33.228Z,3.03
2022-09-05T09:54:47.586Z,2.17
2022-09-05T09:57:45.020Z,1.30
2022-09-05T10:00:17.643Z,1.70
2022-09-05T10:05:33.911Z,1.80
2022-09-05T10:10:44.657Z,1.63
2022-09-05T10:11:17.891Z,1.67
2022-09-05T10:15:19.714Z,2.20
2022-09-05T10:18:26.321Z,1.87
2022-09-05T10:21:15.985Z,2.10
2022-09-05T10:24:26.944Z,2.00
2022-09-05T10:27:10.874Z,2.10
2022-09-05T10:30:03.373Z,1.80
2022-09-05T10:35:14.038Z,2.07
2022-09-05T10:35:37.546Z,1.33
2022-09-05T10:38:11.315Z,1.80
2022-09-05T10:41:20.127Z,1.50
2022-09-05T10:43:31.672Z,1.67
2022-09-05T10:46:07.070Z,1.70
2022-09-05T10:48:39.003Z,1.60
2022-09-05T10:51:26.949Z,1.60
2022-09-05T10:54:08.937Z,2.17
2022-09-05T10:56:41.785Z,2.03
2022-09-05T11:00:56.469Z,1.97
2022-09-05T11:02:31.600Z,1.87
2022-09-05T11:05:06.243Z,1.77
2022-09-05T11:07:41.784Z,1.93
2022-09-05T11:10:14.143Z,1.60
2022-09-05T11:12:59.423Z,1.70
2022-09-05T11:15:33.518Z,1.30
2022-09-05T11:18:03.930Z,1.50
2022-09-05T11:20:56.296Z,1.57
2022-09-05T11:23:32.130Z,1.13
2022-09-05T11:26:04.681Z,1.37
2022-09-05T11:28:40.341Z,1.53
2022-09-05T11:32:26.973Z,1.50
2022-09-05T11:39:52.995Z,1.37
2022-09-05T11:39:56.071Z,1.83
2022-09-05T11:41:26.275Z,1.77
2022-09-05T11:44:26.339Z,1.53
2022-09-05T11:47:29.942Z,1.80
2022-09-05T11:50:28.458Z,1.50
2022-09-05T11:53:16.897Z,1.60
2022-09-05T11:56:04.350Z,1.70
2022-09-05T11:58:53.054Z,1.50
2022-09-05T12:01:38.371Z,1.50
2022-09-05T12:04:41.467Z,1.50
2022-09-05T12:07:16.061Z,1.40
2022-09-05T12:10:47.445Z,1.43
2022-09-05T12:13:40.248Z,1.43
2022-09-05T12:16:20.470Z,1.20
2022-09-05T12:22:29.181Z,1.70
2022-09-05T12:25:25.517Z,1.43
2022-09-05T12:29:27.740Z,1.57
2022-09-05T12:32:49.456Z,1.30
2022-09-05T12:36:09.946Z,1.50
2022-09-05T12:40:54.000Z,2.20
2022-09-05T12:40:55.325Z,1.70
2022-09-05T12:42:08.416Z,1.60
2022-09-05T12:42:56.397Z,1.37
2022-09-05T12:45:37.729Z,1.47
2022-09-05T12:48:12.760Z,1.40
2022-09-05T12:50:45.149Z,1.53
2022-09-05T12:53:18.775Z,1.90
2022-09-05T12:56:56.922Z,1.60
2022-09-05T13:02:59.553Z,1.50
2022-09-05T13:03:05.044Z,1.40
2022-09-05T13:04:31.272Z,1.57
2022-09-05T13:07:01.410Z,1.67
2022-09-05T13:11:08.028Z,1.53
2022-09-05T13:14:59.360Z,2.03
2022-09-05T13:15:23.709Z,1.43
2022-09-05T13:18:00.335Z,1.60
2022-09-05T13:20:36.791Z,1.57
2022-09-05T13:23:13.564Z,1.90
2022-09-05T13:25:43.571Z,2.07
2022-09-05T13:28:14.370Z,2.00
2022-09-05T13:32:57.368Z,1.40
2022-09-05T13:38:04.150Z,1.30
2022-09-05T13:38:30.829Z,1.50
2022-09-05T13:39:28.428Z,1.50
2022-09-05T13:42:03.525Z,1.77
2022-09-05T13:44:36.299Z,1.53
2022-09-05T13:47:28.831Z,1.97
2022-09-05T13:50:08.374Z,1.70
2022-09-05T13:52:41.658Z,1.80
2022-09-05T13:55:20.166Z,1.73
2022-09-05T13:57:51.269Z,1.70
2022-09-05T14:00:52.125Z,1.53
2022-09-05T14:03:55.886Z,1.60
2022-09-05T14:07:43.876Z,1.67
2022-09-05T14:10:09.246Z,1.33
2022-09-05T14:12:40.532Z,1.83
2022-09-05T14:15:19.276Z,1.80
2022-09-05T14:17:58.766Z,1.67
2022-09-05T14:20:49.520Z,1.90
2022-09-05T14:23:18.730Z,1.73
2022-09-05T14:25:52.505Z,1.90
2022-09-05T14:28:27.310Z,1.70
2022-09-05T14:34:04.152Z,2.07
2022-09-05T14:37:48.278Z,1.60
2022-09-05T14:37:49.104Z,1.33
2022-09-05T14:40:29.155Z,1.80
2022-09-05T14:43:14.225Z,2.00
2022-09-05T14:46:04.800Z,1.80
2022-09-05T14:48:53.461Z,1.80
2022-09-05T14:51:30.835Z,1.93
2022-09-05T14:54:01.820Z,1.63
2022-09-05T14:59:35.383Z,1.60
2022-09-05T15:02:48.795Z,1.63
2022-09-05T15:02:57.897Z,1.97
2022-09-05T15:05:19.316Z,2.10
2022-09-05T15:07:48.889Z,1.57
2022-09-05T15:12:17.097Z,1.53
2022-09-05T15:13:25.835Z,1.87
2022-09-05T15:16:02.963Z,1.47
2022-09-05T15:18:33.506Z,1.93
2022-09-05T15:21:33.740Z,1.87
2022-09-05T15:24:21.365Z,1.90
2022-09-05T15:26:53.701Z,1.97
2022-09-05T15:29:24.153Z,1.90
2022-09-05T15:32:09.059Z,2.30
2022-09-05T15:34:39.295Z,1.80
2022-09-05T15:37:24.025Z,1.73
2022-09-05T15:40:02.620Z,2.00
2022-09-05T15:42:33.131Z,1.40
2022-09-05T15:45:10.049Z,1.77
2022-09-05T15:47:48.087Z,1.90
2022-09-05T15:50:22.048Z,1.70
2022-09-05T15:52:55.694Z,2.00
2022-09-05T15:55:25.271Z,1.67
2022-09-05T15:57:55.456Z,2.10
2022-09-05T16:00:37.618Z,2.00
2022-09-05T16:04:47.784Z,1.60
2022-09-05T16:10:36.901Z,2.23
2022-09-05T16:10:50.491Z,2.30
2022-09-05T16:14:39.523Z,1.97
2022-09-05T16:23:14.714Z,2.00
2022-09-05T16:23:24.215Z,1.80
2022-09-05T16:23:25.849Z,1.50
2022-09-05T16:25:57.513Z,1.77
2022-09-05T16:28:27.746Z,1.60
2022-09-05T16:31:01.551Z,1.90
2022-09-05T16:33:32.307Z,1.43
2022-09-05T16:36:05.839Z,1.53
2022-09-05T16:38:49.564Z,1.97
2022-09-05T16:41:24.556Z,1.63
2022-09-05T16:43:57.827Z,2.00
2022-09-05T16:46:31.026Z,2.80
2022-09-05T16:49:05.779Z,1.60
2022-09-05T16:51:45.460Z,2.07
2022-09-05T16:54:23.919Z,1.80
2022-09-05T16:56:55.010Z,1.73
2022-09-05T16:59:24.843Z,2.00
2022-09-05T17:02:09.467Z,1.90
2022-09-05T17:05:04.663Z,1.83
2022-09-05T17:08:05.051Z,1.90
2022-09-05T17:10:35.155Z,2.10
2022-09-05T17:13:07.649Z,1.70
2022-09-05T17:15:37.744Z,2.00
2022-09-05T17:18:25.105Z,2.20
2022-09-05T17:20:58.226Z,2.17
2022-09-05T17:27:42.839Z,1.67
2022-09-05T17:29:33.772Z,1.77
2022-09-05T17:32:50.541Z,2.03
2022-09-05T17:35:43.382Z,2.20
2022-09-05T17:38:37.676Z,1.80
2022-09-05T17:41:48.489Z,2.00
2022-09-05T17:44:22.317Z,2.23
2022-09-05T17:47:04.400Z,2.60
2022-09-05T17:49:43.363Z,2.97
2022-09-05T17:52:23.392Z,3.43
2022-09-05T17:54:54.821Z,3.60
2022-09-05T17:57:49.956Z,5.63
2022-09-05T18:01:00.398Z,5.47
2022-09-05T18:04:08.445Z,5.70
2022-09-05T18:07:00.572Z,5.37
2022-09-05T18:09:59.089Z,4.73
2022-09-05T18:13:13.519Z,4.10
2022-09-05T18:16:11.155Z,4.37
2022-09-05T18:19:27.760Z,5.00
2022-09-05T18:21:48.472Z,5.13
2022-09-05T18:24:32.570Z,5.87
2022-09-05T18:27:39.376Z,4.87
2022-09-05T18:30:06.287Z,4.57
2022-09-05T18:32:53.344Z,6.83
2022-09-05T18:35:26.714Z,9.33
2022-09-05T18:38:50.987Z,8.87
2022-09-05T18:41:23.196Z,6.57
2022-09-05T18:44:12.197Z,7.20
2022-09-05T18:46:46.319Z,4.80
2022-09-05T18:50:21.751Z,4.43
2022-09-05T18:52:11.044Z,4.70
2022-09-05T18:54:42.574Z,4.93
2022-09-05T18:57:26.686Z,4.50
2022-09-05T19:00:01.105Z,4.27
2022-09-05T19:02:50.455Z,4.20
2022-09-05T19:05:40.234Z,3.50
2022-09-05T19:08:12.438Z,4.07
2022-09-05T19:10:59.818Z,3.80
2022-09-05T19:13:32.243Z,3.57
2022-09-05T19:16:43.385Z,3.40
2022-09-05T19:19:10.227Z,2.87
2022-09-05T19:21:41.110Z,3.63
2022-09-05T19:24:12.464Z,2.97
2022-09-05T19:26:41.143Z,3.27
2022-09-05T19:36:52.399Z,3.30
2022-09-05T19:36:59.235Z,3.10
2022-09-05T19:37:23.672Z,3.37
2022-09-05T19:37:50.544Z,3.73
2022-09-05T19:47:30.377Z,3.60
2022-09-05T19:47:45.332Z,3.37
2022-09-05T19:47:47.913Z,3.37
2022-09-05T19:49:07.143Z,3.03
2022-09-05T19:51:37.489Z,3.50
2022-09-05T19:54:06.177Z,3.63
2022-09-05T19:56:38.406Z,2.93
2022-09-05T19:59:18.409Z,3.30
2022-09-05T20:01:48.489Z,4.10
2022-09-05T20:04:19.682Z,3.37
2022-09-05T20:06:49.707Z,3.80
2022-09-05T20:09:19.470Z,3.37
2022-09-05T20:11:50.793Z,3.20
2022-09-05T20:14:22.120Z,3.20
2022-09-05T20:16:51.100Z,3.70
2022-09-05T20:19:31.368Z,3.20
2022-09-05T20:22:12.750Z,3.33
2022-09-05T20:24:52.729Z,3.63
2022-09-05T20:27:27.255Z,3.63
2022-09-05T20:29:59.127Z,4.60
2022-09-05T20:32:39.338Z,3.53
2022-09-05T20:43:08.463Z,4.67
2022-09-05T20:43:22.467Z,3.90
2022-09-05T20:43:35.068Z,3.93
2022-09-05T20:43:58.183Z,4.07
2022-09-05T20:48:29.604Z,4.00
2022-09-05T20:54:09.299Z,3.53
2022-09-05T20:54:25.870Z,4.10
2022-09-05T20:55:38.350Z,4.40
2022-09-05T20:58:10.832Z,3.83
2022-09-05T21:00:41.531Z,3.80
2022-09-05T21:03:36.745Z,4.00
2022-09-05T21:06:27.311Z,4.80
2022-09-05T21:09:14.144Z,3.37
2022-09-05T21:11:42.995Z,4.10
2022-09-05T21:14:12.743Z,3.80
2022-09-05T21:16:50.937Z,5.20
2022-09-05T21:19:24.429Z,4.43
2022-09-05T21:22:03.812Z,3.90
2022-09-05T21:24:33.661Z,3.70
2022-09-05T21:27:17.192Z,3.60
2022-09-05T21:29:52.978Z,3.20
2022-09-05T21:32:37.859Z,3.73
2022-09-05T21:35:16.033Z,3.57
2022-09-05T21:37:58.145Z,3.83
2022-09-05T21:40:28.062Z,3.73
2022-09-05T21:47:34.340Z,3.90
2022-09-05T21:47:37.890Z,3.70
2022-09-05T21:48:36.727Z,4.30
2022-09-05T21:51:08.550Z,4.13
2022-09-05T21:59:20.519Z,3.57
2022-09-05T21:59:20.705Z,4.27
2022-09-05T21:59:46.152Z,3.80
2022-09-05T22:02:08.842Z,3.70
2022-09-05T22:04:41.759Z,4.17
2022-09-05T22:07:14.455Z,4.73
2022-09-05T22:09:43.239Z,3.93
2022-09-05T22:12:30.975Z,4.37
2022-09-05T22:15:28.508Z,3.97
2022-09-05T22:17:48.187Z,3.70
2022-09-05T22:20:20.422Z,3.97
2022-09-05T22:22:56.346Z,3.17
2022-09-05T22:25:28.489Z,3.57
2022-09-05T22:28:14.126Z,3.90
2022-09-05T22:30:43.473Z,3.73
2022-09-05T22:33:13.429Z,3.93
2022-09-05T22:35:41.753Z,3.87
2022-09-05T22:38:16.419Z,3.43
2022-09-05T22:40:46.079Z,3.90
2022-09-05T22:43:17.573Z,4.23
2022-09-05T22:45:46.064Z,3.80
2022-09-05T22:48:15.285Z,4.20
2022-09-05T22:50:44.722Z,4.77
2022-09-05T22:53:13.035Z,4.30
2022-09-05T22:55:43.443Z,4.70
2022-09-05T22:58:13.202Z,4.20
2022-09-05T23:00:44.720Z,3.93
2022-09-05T23:03:12.970Z,3.80
2022-09-05T23:05:42.083Z,3.80
2022-09-05T23:08:10.615Z,4.13
2022-09-05T23:10:38.996Z,4.33
2022-09-05T23:13:10.205Z,4.07
2022-09-05T23:15:39.332Z,4.17
2022-09-05T23:18:09.239Z,3.90
2022-09-05T23:20:37.932Z,4.07
2022-09-05T23:23:07.778Z,5.03
2022-09-05T23:25:42.561Z,4.40
2022-09-05T23:28:11.644Z,5.00
2022-09-05T23:30:41.299Z,5.00
2022-09-05T23:33:11.773Z,5.10
2022-09-05T23:35:40.647Z,4.80
2022-09-05T23:38:11.335Z,4.63
2022-09-05T23:40:39.979Z,3.73
2022-09-05T23:43:08.589Z,4.63
2022-09-05T23:45:36.903Z,4.33
2022-09-05T23:48:05.424Z,4.80
2022-09-05T23:50:35.476Z,4.37
2022-09-05T23:53:05.196Z,4.90
2022-09-05T23:55:34.344Z,4.37
2022-09-05T23:58:02.589Z,3.60
